createdAt,value
2019-03-11T00:01:50.856Z,86.60
2019-03-11T00:04:17.812Z,86.80
2019-03-11T00:06:44.404Z,87.00
2019-03-11T00:09:10.416Z,87.10
2019-03-11T00:11:36.444Z,86.90
2019-03-11T00:14:02.664Z,86.80
2019-03-11T00:16:28.707Z,87.40
2019-03-11T00:18:54.718Z,88.20
2019-03-11T00:21:20.748Z,87.60
2019-03-11T00:23:46.760Z,87.70
2019-03-11T00:26:12.788Z,87.90
2019-03-11T00:39:05.098Z,89.30
2019-03-11T00:41:31.132Z,89.30
2019-03-11T00:43:57.146Z,89.10
2019-03-11T00:46:23.161Z,88.80
2019-03-11T00:48:49.193Z,88.80
2019-03-11T00:51:15.210Z,88.60
2019-03-11T00:53:41.240Z,89.00
2019-03-11T00:56:07.269Z,89.50
2019-03-11T00:58:33.288Z,89.90
2019-03-11T01:00:59.308Z,90.40
2019-03-11T01:03:25.335Z,89.60
2019-03-11T01:05:51.424Z,89.30
2019-03-11T01:08:17.450Z,90.10
2019-03-11T01:10:43.496Z,90.30
2019-03-11T01:13:09.618Z,90.50
2019-03-11T01:15:35.624Z,90.60
2019-03-11T01:18:01.797Z,90.60
2019-03-11T01:20:27.811Z,90.00
2019-03-11T01:22:53.842Z,90.20
2019-03-11T01:25:19.860Z,90.40
2019-03-11T01:27:45.896Z,90.00
2019-03-11T01:30:14.522Z,89.20
2019-03-11T01:32:40.548Z,90.00
2019-03-11T01:35:07.659Z,89.80
2019-03-11T01:37:33.688Z,88.70
2019-03-11T01:39:59.703Z,88.70
2019-03-11T01:42:25.739Z,88.90
2019-03-11T01:44:51.756Z,88.20
2019-03-11T01:47:17.799Z,88.40
2019-03-11T01:49:43.818Z,88.40
2019-03-11T01:52:09.831Z,88.50
2019-03-11T01:54:35.868Z,88.90
2019-03-11T01:57:01.879Z,89.10
2019-03-11T01:59:27.918Z,89.50
2019-03-11T02:01:53.952Z,89.40
2019-03-11T02:04:19.987Z,90.00
2019-03-11T02:06:45.996Z,90.30
2019-03-11T02:09:12.136Z,90.30
2019-03-11T02:11:38.152Z,90.50
2019-03-11T02:14:05.206Z,90.70
2019-03-11T02:16:31.216Z,90.10
2019-03-11T02:18:57.277Z,90.00
2019-03-11T02:21:23.288Z,90.40
2019-03-11T02:23:49.327Z,90.50
2019-03-11T02:26:15.344Z,90.30
2019-03-11T02:28:41.387Z,90.50
2019-03-11T02:31:07.401Z,90.60
2019-03-11T02:33:33.431Z,90.70
2019-03-11T02:35:59.450Z,91.00
2019-03-11T02:38:25.485Z,90.90
2019-03-11T02:40:51.500Z,90.90
2019-03-11T02:43:17.520Z,91.10
2019-03-11T02:45:43.529Z,91.60
2019-03-11T02:48:09.574Z,91.60
2019-03-11T02:50:35.572Z,91.90
2019-03-11T02:53:02.093Z,91.70
2019-03-11T02:55:28.101Z,91.70
2019-03-11T02:57:54.107Z,92.00
2019-03-11T03:00:20.581Z,92.00
2019-03-11T03:03:07.024Z,92.20
2019-03-11T03:05:35.979Z,92.20
2019-03-11T03:08:01.989Z,92.30
2019-03-11T03:10:28.013Z,92.20
2019-03-11T03:12:54.027Z,92.10
2019-03-11T03:15:20.074Z,92.20
2019-03-11T03:17:46.087Z,92.20
2019-03-11T03:20:13.508Z,92.30
2019-03-11T03:22:39.521Z,92.00
2019-03-11T03:25:08.164Z,92.10
2019-03-11T03:27:34.189Z,92.00
2019-03-11T03:30:00.608Z,92.10
2019-03-11T03:32:26.711Z,92.20
2019-03-11T03:34:52.747Z,92.20
2019-03-11T03:37:18.746Z,92.20
2019-03-11T03:39:44.773Z,92.20
2019-03-11T03:42:13.359Z,92.30
2019-03-11T03:44:42.521Z,92.20
2019-03-11T03:47:08.607Z,92.30
2019-03-11T03:49:34.663Z,92.10
2019-03-11T03:52:00.676Z,91.90
2019-03-11T03:54:26.702Z,92.10
2019-03-11T03:57:06.096Z,92.00
2019-03-11T03:59:32.133Z,92.30
2019-03-11T04:01:58.156Z,92.20
2019-03-11T04:04:24.184Z,92.20
2019-03-11T04:06:50.191Z,92.00
2019-03-11T04:09:16.215Z,92.10
2019-03-11T04:11:42.219Z,92.20
2019-03-11T04:14:08.251Z,92.30
2019-03-11T04:16:34.363Z,92.20
2019-03-11T04:19:00.388Z,92.20
2019-03-11T04:21:26.451Z,92.00
2019-03-11T04:23:52.512Z,92.30
2019-03-11T04:26:18.659Z,92.40
2019-03-11T04:28:44.867Z,92.30
2019-03-11T04:31:10.898Z,92.20
2019-03-11T04:33:37.012Z,92.60
2019-03-11T04:36:03.037Z,92.20
2019-03-11T04:38:29.349Z,92.10
2019-03-11T04:40:55.375Z,92.10
2019-03-11T04:43:21.399Z,92.20
2019-03-11T04:45:47.437Z,92.60
2019-03-11T04:48:13.442Z,92.70
2019-03-11T04:50:39.477Z,93.10
2019-03-11T04:53:05.486Z,92.70
2019-03-11T04:55:31.512Z,92.50
2019-03-11T04:57:57.545Z,92.80
2019-03-11T05:00:28.206Z,92.50
2019-03-11T05:02:54.219Z,92.30
2019-03-11T05:05:20.248Z,92.20
2019-03-11T05:07:46.260Z,92.10
2019-03-11T05:10:13.001Z,91.10
2019-03-11T05:12:39.207Z,91.40
2019-03-11T05:15:10.008Z,91.80
2019-03-11T05:17:36.017Z,92.20
2019-03-11T05:20:04.847Z,92.40
2019-03-11T05:22:30.862Z,92.80
2019-03-11T05:24:56.894Z,92.50
2019-03-11T05:27:22.915Z,92.30
2019-03-11T05:29:48.947Z,92.20
2019-03-11T05:32:14.959Z,91.40
2019-03-11T05:34:42.379Z,91.60
2019-03-11T05:37:08.396Z,91.70
2019-03-11T05:39:34.418Z,92.00
2019-03-11T05:42:00.963Z,92.30
2019-03-11T05:44:27.004Z,92.20
2019-03-11T05:46:53.043Z,92.20
2019-03-11T05:49:19.056Z,92.00
2019-03-11T05:51:51.791Z,92.20
2019-03-11T05:54:17.994Z,92.10
2019-03-11T05:56:44.019Z,91.90
2019-03-11T05:59:10.035Z,92.20
2019-03-11T06:01:36.088Z,92.70
2019-03-11T06:04:02.220Z,92.80
2019-03-11T06:06:28.317Z,93.00
2019-03-11T06:08:54.632Z,93.40
2019-03-11T06:11:20.790Z,94.00
2019-03-11T06:13:46.817Z,94.30
2019-03-11T06:16:12.848Z,94.60
2019-03-11T06:18:40.836Z,94.70
2019-03-11T06:21:17.683Z,94.60
2019-03-11T06:23:44.771Z,94.70
2019-03-11T06:26:10.801Z,94.60
2019-03-11T06:28:36.831Z,94.20
2019-03-11T06:31:02.859Z,94.50
2019-03-11T06:33:28.871Z,94.10
2019-03-11T06:35:54.908Z,93.90
2019-03-11T06:38:20.920Z,93.60
2019-03-11T06:40:46.943Z,93.30
2019-03-11T06:43:12.967Z,93.60
2019-03-11T06:45:39.003Z,93.40
2019-03-11T06:48:05.015Z,93.60
2019-03-11T06:50:31.045Z,94.00
2019-03-11T06:52:57.055Z,94.20
2019-03-11T06:55:23.176Z,94.50
2019-03-11T06:57:49.203Z,94.60
2019-03-11T07:00:19.099Z,94.30
2019-03-11T07:02:45.123Z,94.50
2019-03-11T07:05:19.763Z,94.30
2019-03-11T07:07:39.644Z,94.20
2019-03-11T07:10:08.784Z,93.90
2019-03-11T07:12:34.896Z,93.70
2019-03-11T07:15:00.903Z,93.20
2019-03-11T07:17:28.256Z,92.80
2019-03-11T07:19:54.268Z,91.40
2019-03-11T07:22:20.291Z,91.10
2019-03-11T07:24:46.307Z,91.10
2019-03-11T07:27:12.335Z,91.10
2019-03-11T07:29:38.363Z,91.40
2019-03-11T07:32:04.394Z,91.70
2019-03-11T07:34:30.395Z,91.80
2019-03-11T07:36:56.423Z,91.80
2019-03-11T07:39:22.431Z,92.00
2019-03-11T07:41:48.460Z,92.10
2019-03-11T07:44:14.466Z,92.40
2019-03-11T07:46:40.491Z,92.20
2019-03-11T07:49:06.502Z,92.40
2019-03-11T07:51:32.627Z,93.00
2019-03-11T07:53:58.644Z,92.00
2019-03-11T07:56:24.672Z,91.80
2019-03-11T07:58:50.692Z,91.20
2019-03-11T08:01:16.745Z,90.70
2019-03-11T08:03:42.743Z,90.50
2019-03-11T08:06:18.198Z,89.10
2019-03-11T08:08:36.704Z,88.60
2019-03-11T08:11:02.731Z,87.90
2019-03-11T08:13:28.759Z,87.00
2019-03-11T08:15:54.800Z,87.70
2019-03-11T08:18:20.811Z,87.00
2019-03-11T08:20:46.831Z,86.80
2019-03-11T08:23:12.863Z,86.30
2019-03-11T08:25:38.883Z,85.90
2019-03-11T08:28:04.911Z,86.60
2019-03-11T08:30:30.971Z,86.20
2019-03-11T08:32:57.009Z,84.90
2019-03-11T08:35:23.017Z,83.80
2019-03-11T08:37:49.047Z,85.00
2019-03-11T08:40:17.427Z,85.30
2019-03-11T08:42:43.451Z,84.10
2019-03-11T08:45:11.368Z,83.60
2019-03-11T08:47:37.404Z,82.90
2019-03-11T08:50:06.888Z,82.90
2019-03-11T08:52:32.944Z,82.90
2019-03-11T08:54:58.971Z,81.40
2019-03-11T08:57:25.012Z,82.00
2019-03-11T08:59:51.022Z,81.90
2019-03-11T09:02:17.056Z,81.80
2019-03-11T09:04:43.064Z,80.60
2019-03-11T09:07:09.156Z,79.30
2019-03-11T09:09:35.160Z,79.50
2019-03-11T09:12:01.187Z,77.20
2019-03-11T09:14:27.200Z,79.00
2019-03-11T09:16:53.224Z,78.50
2019-03-11T09:19:19.244Z,79.70
2019-03-11T09:21:45.259Z,79.20
2019-03-11T09:24:19.250Z,77.00
2019-03-11T09:26:39.215Z,74.10
2019-03-11T09:29:05.225Z,75.00
2019-03-11T09:31:31.255Z,73.90
2019-03-11T09:33:57.269Z,70.50
2019-03-11T09:36:23.291Z,70.90
2019-03-11T09:38:49.304Z,68.60
2019-03-11T09:41:15.345Z,65.20
2019-03-11T09:43:41.411Z,65.90
2019-03-11T09:46:07.435Z,63.60
2019-03-11T09:48:33.511Z,63.80
2019-03-11T09:50:59.566Z,62.50
2019-03-11T09:53:25.588Z,63.20
2019-03-11T09:55:51.617Z,65.30
2019-03-11T09:58:17.649Z,66.00
2019-03-11T10:00:43.659Z,64.60
2019-03-11T10:03:09.699Z,64.50
2019-03-11T10:05:35.715Z,64.30
2019-03-11T10:08:01.846Z,62.20
2019-03-11T10:10:28.644Z,63.60
2019-03-11T10:12:54.681Z,63.40
2019-03-11T10:15:21.389Z,64.30
2019-03-11T10:17:47.415Z,64.40
2019-03-11T10:20:15.956Z,62.70
2019-03-11T10:22:42.190Z,64.00
2019-03-11T10:25:09.095Z,64.60
2019-03-11T10:27:35.132Z,64.30
2019-03-11T10:30:01.148Z,63.80
2019-03-11T10:32:27.176Z,60.30
2019-03-11T10:34:53.187Z,59.60
2019-03-11T10:37:19.222Z,59.00
2019-03-11T10:39:47.712Z,59.40
2019-03-11T10:42:13.168Z,60.50
2019-03-11T10:44:39.183Z,63.00
2019-03-11T10:47:05.215Z,65.80
2019-03-11T10:49:31.248Z,65.20
2019-03-11T10:51:57.271Z,64.40
2019-03-11T10:54:23.300Z,62.70
2019-03-11T10:56:49.639Z,63.50
2019-03-11T10:59:15.652Z,62.00
2019-03-11T11:01:41.671Z,62.90
2019-03-11T11:04:07.708Z,60.30
2019-03-11T11:06:33.712Z,58.70
2019-03-11T11:08:59.740Z,57.80
2019-03-11T11:11:25.757Z,58.40
2019-03-11T11:13:51.799Z,56.70
2019-03-11T11:16:17.802Z,56.80
2019-03-11T11:18:43.831Z,59.30
2019-03-11T11:21:09.843Z,60.40
2019-03-11T11:23:35.868Z,62.50
2019-03-11T11:26:01.976Z,63.40
2019-03-11T11:28:28.008Z,59.70
2019-03-11T11:30:54.019Z,60.00
2019-03-11T11:33:20.042Z,60.50
2019-03-11T11:35:46.052Z,60.50
2019-03-11T11:38:12.078Z,58.40
2019-03-11T11:40:38.191Z,57.40
2019-03-11T11:43:04.315Z,58.00
2019-03-11T11:45:31.131Z,59.30
2019-03-11T11:47:57.160Z,60.00
2019-03-11T11:50:24.095Z,60.40
2019-03-11T11:52:50.524Z,59.90
2019-03-11T11:55:18.054Z,61.30
2019-03-11T11:57:44.603Z,60.90
2019-03-11T12:00:24.451Z,60.90
2019-03-11T12:02:50.580Z,60.40
2019-03-11T12:05:17.096Z,58.60
2019-03-11T12:07:43.131Z,58.50
2019-03-11T12:10:14.388Z,58.40
2019-03-11T12:12:40.420Z,55.90
2019-03-11T12:15:08.632Z,55.00
2019-03-11T12:17:34.676Z,55.60
2019-03-11T12:20:00.683Z,57.70
2019-03-11T12:22:26.711Z,56.90
2019-03-11T12:24:52.728Z,56.00
2019-03-11T12:27:18.759Z,55.90
2019-03-11T12:29:44.866Z,55.40
2019-03-11T12:32:10.895Z,56.30
2019-03-11T12:34:36.908Z,56.50
2019-03-11T12:37:02.940Z,57.70
2019-03-11T12:39:28.947Z,57.40
2019-03-11T12:41:54.975Z,57.20
2019-03-11T12:44:20.991Z,56.30
2019-03-11T12:46:47.017Z,56.20
2019-03-11T12:49:13.036Z,54.70
2019-03-11T12:51:49.143Z,54.40
2019-03-11T12:54:06.984Z,54.50
2019-03-11T12:56:33.028Z,54.70
2019-03-11T12:58:59.040Z,54.80
2019-03-11T13:01:25.072Z,53.90
2019-03-11T13:03:51.079Z,54.70
2019-03-11T13:06:17.106Z,55.30
2019-03-11T13:08:43.115Z,55.60
2019-03-11T13:11:09.129Z,56.00
2019-03-11T13:13:35.157Z,56.70
2019-03-11T13:16:01.168Z,56.00
2019-03-11T13:18:33.065Z,55.50
2019-03-11T13:21:02.723Z,56.00
2019-03-11T13:23:28.748Z,58.50
2019-03-11T13:25:54.760Z,57.90
2019-03-11T13:28:20.788Z,57.80
2019-03-11T13:30:46.801Z,62.50
2019-03-11T13:33:12.839Z,64.60
2019-03-11T13:35:38.848Z,62.90
2019-03-11T13:38:04.884Z,63.30
2019-03-11T13:40:30.923Z,65.80
2019-03-11T13:42:56.966Z,68.60
2019-03-11T13:45:22.974Z,60.90
2019-03-11T13:47:49.002Z,65.20
2019-03-11T13:50:16.845Z,58.30
2019-03-11T13:55:10.879Z,55.90
2019-03-11T13:57:37.084Z,57.20
2019-03-11T14:00:18.115Z,57.50
2019-03-11T14:02:44.392Z,58.90
2019-03-11T14:05:10.500Z,62.70
2019-03-11T14:07:36.542Z,64.20
2019-03-11T14:10:04.947Z,67.10
2019-03-11T14:12:31.001Z,69.40
2019-03-11T14:14:57.111Z,67.80
2019-03-11T14:17:23.215Z,67.50
2019-03-11T14:19:49.237Z,67.50
2019-03-11T14:22:15.268Z,67.80
2019-03-11T14:24:41.282Z,67.20
2019-03-11T14:27:07.291Z,63.90
2019-03-11T14:29:33.327Z,60.50
2019-03-11T14:31:59.355Z,61.10
2019-03-11T14:34:25.380Z,62.50
2019-03-11T14:36:51.396Z,65.40
2019-03-11T14:39:17.445Z,66.30
2019-03-11T14:41:43.463Z,67.00
2019-03-11T14:44:09.503Z,64.10
2019-03-11T14:46:35.520Z,61.50
2019-03-11T14:49:01.556Z,60.00
2019-03-11T14:51:27.583Z,58.40
2019-03-11T14:53:53.629Z,57.80
2019-03-11T14:56:19.630Z,58.40
2019-03-11T14:58:45.663Z,57.60
2019-03-11T15:01:11.679Z,57.50
2019-03-11T15:03:37.701Z,57.40
2019-03-11T15:06:03.718Z,58.20
2019-03-11T15:08:29.745Z,58.00
2019-03-11T15:10:55.753Z,57.80
2019-03-11T15:13:21.787Z,56.50
2019-03-11T15:15:47.799Z,56.90
2019-03-11T15:18:13.844Z,57.60
2019-03-11T15:20:39.846Z,57.60
2019-03-11T15:23:18.622Z,58.00
2019-03-11T15:25:33.783Z,58.20
2019-03-11T15:27:59.812Z,57.30
2019-03-11T15:30:25.927Z,57.20
2019-03-11T15:32:51.955Z,58.00
2019-03-11T15:35:18.064Z,56.90
2019-03-11T15:37:44.171Z,56.10
2019-03-11T15:40:16.788Z,56.50
2019-03-11T15:42:42.811Z,56.90
2019-03-11T15:45:16.019Z,58.20
2019-03-11T15:47:42.029Z,58.60
2019-03-11T15:50:14.114Z,59.10
2019-03-11T15:52:40.119Z,58.30
2019-03-11T15:55:27.944Z,57.80
2019-03-11T15:57:54.024Z,58.60
2019-03-11T16:00:21.188Z,59.50
2019-03-11T16:02:47.392Z,60.50
2019-03-11T16:05:14.332Z,59.30
2019-03-11T16:07:40.343Z,59.10
2019-03-11T16:10:16.693Z,60.30
2019-03-11T16:12:37.410Z,60.50
2019-03-11T16:15:05.563Z,59.50
2019-03-11T16:17:31.576Z,59.80
2019-03-11T16:19:57.621Z,59.70
2019-03-11T16:22:26.233Z,60.60
2019-03-11T16:24:51.628Z,61.30
2019-03-11T16:27:17.659Z,61.40
2019-03-11T16:29:43.696Z,62.10
2019-03-11T16:32:11.846Z,61.50
2019-03-11T16:34:37.699Z,60.50
2019-03-11T16:37:03.707Z,60.30
2019-03-11T16:39:30.160Z,62.20
2019-03-11T16:41:56.167Z,64.10
2019-03-11T16:44:22.204Z,64.70
2019-03-11T16:46:48.216Z,65.40
2019-03-11T16:49:14.813Z,65.20
2019-03-11T16:51:40.832Z,61.30
2019-03-11T16:56:39.587Z,59.90
2019-03-11T16:59:05.845Z,62.50
2019-03-11T17:01:31.866Z,64.80
2019-03-11T17:03:57.924Z,66.30
2019-03-11T17:06:23.934Z,65.80
2019-03-11T17:08:49.949Z,64.90
2019-03-11T17:11:16.060Z,65.10
2019-03-11T17:13:42.106Z,65.20
2019-03-11T17:16:08.234Z,66.10
2019-03-11T17:18:34.259Z,67.60
2019-03-11T17:21:02.107Z,68.20
2019-03-11T17:23:28.125Z,69.10
2019-03-11T17:25:54.205Z,69.20
2019-03-11T17:28:20.227Z,69.60
2019-03-11T17:30:46.383Z,69.40
2019-03-11T17:33:12.391Z,70.10
2019-03-11T17:35:38.440Z,70.70
2019-03-11T17:38:04.596Z,70.40
2019-03-11T17:40:30.818Z,71.50
2019-03-11T17:42:56.860Z,71.30
2019-03-11T17:45:22.905Z,71.20
2019-03-11T17:47:49.137Z,72.30
2019-03-11T17:50:17.802Z,72.00
2019-03-11T17:52:44.034Z,73.20
2019-03-11T17:55:10.811Z,73.30
2019-03-11T17:57:37.024Z,72.70
2019-03-11T18:00:26.773Z,73.80
2019-03-11T18:02:53.188Z,72.20
2019-03-11T18:05:19.328Z,73.30
2019-03-11T18:07:45.610Z,72.90
2019-03-11T18:10:11.892Z,72.70
2019-03-11T18:12:38.035Z,72.90
2019-03-11T18:15:25.870Z,73.70
2019-03-11T18:17:51.884Z,73.50
2019-03-11T18:20:18.948Z,73.40
2019-03-11T18:22:46.136Z,72.90
2019-03-11T18:25:13.983Z,73.20
2019-03-11T18:27:40.130Z,73.50
2019-03-11T18:30:09.757Z,75.70
2019-03-11T18:32:35.770Z,79.50
2019-03-11T18:35:02.242Z,81.70
2019-03-11T18:37:28.239Z,82.60
2019-03-11T18:39:54.316Z,83.30
2019-03-11T18:42:25.192Z,83.60
2019-03-11T18:44:48.251Z,83.80
2019-03-11T18:47:14.392Z,84.20
2019-03-11T18:49:40.420Z,84.70
2019-03-11T18:52:06.468Z,84.60
2019-03-11T18:54:32.557Z,84.90
2019-03-11T18:56:58.593Z,85.20
2019-03-11T18:59:24.621Z,85.40
2019-03-11T19:01:50.753Z,85.70
2019-03-11T19:04:16.772Z,86.10
2019-03-11T19:06:42.921Z,86.40
2019-03-11T19:09:09.032Z,86.40
2019-03-11T19:11:35.148Z,86.80
2019-03-11T19:14:01.259Z,87.20
2019-03-11T19:16:27.379Z,87.50
2019-03-11T19:18:53.388Z,87.50
2019-03-11T19:21:19.559Z,87.20
2019-03-11T19:23:45.590Z,87.10
2019-03-11T19:26:11.720Z,86.70
2019-03-11T19:28:57.659Z,87.00
2019-03-11T19:31:23.748Z,86.70
2019-03-11T19:33:49.895Z,86.90
2019-03-11T19:36:16.004Z,87.20
2019-03-11T19:38:42.086Z,87.10
2019-03-11T19:41:08.235Z,87.40
2019-03-11T19:43:34.363Z,87.80
2019-03-11T19:46:00.471Z,88.00
2019-03-11T19:48:26.512Z,88.00
2019-03-11T19:50:52.705Z,88.30
2019-03-11T19:53:18.794Z,88.60
2019-03-11T19:55:47.506Z,88.70
2019-03-11T19:58:12.744Z,89.20
2019-03-11T20:00:38.831Z,89.40
2019-03-11T20:03:05.066Z,89.60
2019-03-11T20:05:32.147Z,90.00
2019-03-11T20:07:58.335Z,90.00
2019-03-11T20:10:24.920Z,90.00
2019-03-11T20:12:51.075Z,90.20
2019-03-11T20:15:17.324Z,90.30
2019-03-11T20:17:43.763Z,90.40
2019-03-11T20:20:13.670Z,90.60
2019-03-11T20:22:40.386Z,90.70
2019-03-11T20:25:21.980Z,91.00
2019-03-11T20:27:48.263Z,91.00
2019-03-11T20:30:17.843Z,91.10
2019-03-11T20:32:44.088Z,91.10
2019-03-11T20:35:10.128Z,91.40
2019-03-11T20:37:36.196Z,91.50
2019-03-11T20:40:04.892Z,91.70
2019-03-11T20:42:33.873Z,91.60
2019-03-11T20:44:58.898Z,91.70
2019-03-11T20:47:25.040Z,91.70
2019-03-11T20:49:51.146Z,91.90
2019-03-11T20:52:17.179Z,92.10
2019-03-11T20:54:43.230Z,92.10
2019-03-11T20:57:09.399Z,92.20
2019-03-11T20:59:35.522Z,92.20
2019-03-11T21:02:01.656Z,92.30
2019-03-11T21:04:27.740Z,92.30
2019-03-11T21:06:53.986Z,92.30
2019-03-11T21:09:20.174Z,92.50
2019-03-11T21:11:46.282Z,92.60
2019-03-11T21:14:12.413Z,92.60
2019-03-11T21:16:38.569Z,92.70
2019-03-11T21:19:04.648Z,92.70
2019-03-11T21:21:30.688Z,92.80
2019-03-11T21:24:02.043Z,93.20
2019-03-11T21:26:24.678Z,93.50
2019-03-11T21:28:50.833Z,93.20
2019-03-11T21:31:18.316Z,93.70
2019-03-11T21:33:57.648Z,93.80
2019-03-11T21:36:12.780Z,93.90
2019-03-11T21:38:38.952Z,94.10
2019-03-11T21:41:05.349Z,94.20
2019-03-11T21:43:31.494Z,94.20
2019-03-11T21:45:57.548Z,94.20
2019-03-11T21:48:25.292Z,94.70
2019-03-11T21:50:51.337Z,94.60
2019-03-11T21:53:17.610Z,94.80
2019-03-11T21:55:43.631Z,94.90
2019-03-11T21:58:13.529Z,94.80
2019-03-11T22:00:37.722Z,95.10
2019-03-11T22:03:03.752Z,95.40
2019-03-11T22:05:29.768Z,95.30
2019-03-11T22:07:55.808Z,95.30
2019-03-11T22:10:21.824Z,95.30
2019-03-11T22:12:47.981Z,95.10
2019-03-11T22:15:19.622Z,95.40
2019-03-11T22:17:45.755Z,95.50
2019-03-11T22:20:13.668Z,95.80
2019-03-11T22:22:39.712Z,95.90
2019-03-11T22:25:09.239Z,95.80
2019-03-11T22:27:35.272Z,95.90
2019-03-11T22:30:01.391Z,96.10
2019-03-11T22:32:27.866Z,96.10
2019-03-11T22:34:53.889Z,96.20
2019-03-11T22:37:19.950Z,96.10
2019-03-11T22:39:45.955Z,96.10
2019-03-11T22:42:12.006Z,96.00
2019-03-11T22:44:38.015Z,96.00
2019-03-11T22:47:04.058Z,95.80
2019-03-11T22:49:30.102Z,96.10
2019-03-11T22:51:56.115Z,95.90
2019-03-11T22:54:22.148Z,96.00
2019-03-11T22:56:48.188Z,96.10
2019-03-11T22:59:14.232Z,96.30
2019-03-11T23:01:40.369Z,96.30
2019-03-11T23:04:06.399Z,96.10
2019-03-11T23:06:32.427Z,96.00
2019-03-11T23:08:58.475Z,96.00
2019-03-11T23:11:24.504Z,96.10
2019-03-11T23:13:50.544Z,96.00
2019-03-11T23:16:16.569Z,96.00
2019-03-11T23:18:42.626Z,96.10
2019-03-11T23:21:08.675Z,96.20
2019-03-11T23:23:34.812Z,96.70
2019-03-11T23:26:00.837Z,96.60
2019-03-11T23:28:26.868Z,96.50
2019-03-11T23:30:52.908Z,96.50
2019-03-11T23:33:18.955Z,96.70
2019-03-11T23:35:45.012Z,96.90
2019-03-11T23:38:12.112Z,97.00
2019-03-11T23:40:38.131Z,96.90
2019-03-11T23:43:04.161Z,97.00
2019-03-11T23:45:30.175Z,97.10
2019-03-11T23:47:56.213Z,97.20
2019-03-11T23:50:22.246Z,97.00
2019-03-11T23:52:48.276Z,97.00
2019-03-11T23:55:14.285Z,97.00
2019-03-11T23:57:40.317Z,97.00
